createdAt,value
2022-09-06T00:03:56.160Z,1.17
2022-09-06T00:08:57.899Z,1.00
2022-09-06T00:13:59.645Z,1.15
2022-09-06T00:19:01.340Z,1.10
2022-09-06T00:24:03.998Z,1.27
2022-09-06T00:29:06.660Z,1.23
2022-09-06T00:34:08.392Z,1.13
2022-09-06T00:39:10.180Z,1.30
2022-09-06T00:44:12.130Z,1.70
2022-09-06T00:49:39.032Z,1.20
2022-09-06T00:54:41.911Z,1.10
2022-09-06T00:59:45.820Z,1.10
2022-09-06T01:04:49.187Z,1.67
2022-09-06T01:10:08.890Z,1.40
2022-09-06T01:15:18.936Z,1.92
2022-09-06T01:20:32.462Z,1.42
2022-09-06T01:26:01.203Z,1.38
2022-09-06T01:31:23.448Z,1.58
2022-09-06T01:36:29.202Z,1.70
2022-09-06T01:41:31.887Z,1.80
2022-09-06T01:47:17.899Z,2.13
2022-09-06T01:52:38.316Z,1.80
2022-09-06T01:58:29.970Z,1.85
2022-09-06T02:03:46.366Z,2.08
2022-09-06T02:08:57.575Z,2.30
2022-09-06T02:14:07.184Z,1.77
2022-09-06T02:19:18.022Z,2.13
2022-09-06T02:24:26.084Z,1.83
2022-09-06T02:29:27.959Z,2.60
2022-09-06T02:34:30.923Z,2.22
2022-09-06T02:39:32.755Z,2.80
2022-09-06T02:44:34.507Z,2.80
2022-09-06T02:49:36.366Z,2.90
2022-09-06T02:54:38.016Z,3.38
2022-09-06T02:59:39.827Z,3.40
2022-09-06T03:04:43.732Z,4.05
2022-09-06T03:09:45.324Z,4.15
2022-09-06T03:14:50.152Z,4.18
2022-09-06T03:19:54.696Z,3.88
2022-09-06T03:24:56.664Z,3.90
2022-09-06T03:29:58.558Z,3.50
2022-09-06T03:35:00.516Z,3.70
2022-09-06T03:40:06.519Z,4.07
2022-09-06T03:45:08.899Z,4.13
2022-09-06T03:50:10.874Z,3.83
2022-09-06T03:55:12.546Z,4.00
2022-09-06T04:00:15.016Z,4.20
2022-09-06T04:05:17.528Z,3.72
2022-09-06T04:10:19.304Z,4.03
2022-09-06T04:15:21.050Z,3.60
2022-09-06T04:20:23.570Z,3.20
2022-09-06T04:25:25.221Z,3.50
2022-09-06T04:30:27.915Z,3.83
2022-09-06T04:35:29.558Z,3.22
2022-09-06T04:40:31.282Z,3.55
2022-09-06T04:45:33.018Z,3.92
2022-09-06T04:50:34.969Z,3.10
2022-09-06T04:55:42.287Z,4.07
2022-09-06T05:00:44.976Z,4.57
2022-09-06T05:05:46.719Z,3.67
2022-09-06T05:10:51.473Z,3.67
2022-09-06T05:15:53.164Z,3.53
2022-09-06T05:20:55.150Z,4.38
2022-09-06T05:25:56.938Z,4.35
2022-09-06T05:31:13.216Z,4.50
2022-09-06T05:36:15.116Z,4.05
2022-09-06T05:41:16.763Z,4.57
2022-09-06T05:46:18.827Z,14.50
2022-09-06T05:51:20.668Z,4.97
2022-09-06T05:56:22.613Z,4.55
2022-09-06T06:01:31.423Z,5.03
2022-09-06T06:06:35.258Z,5.80
2022-09-06T06:11:37.218Z,5.65
2022-09-06T06:16:39.049Z,5.78
2022-09-06T06:21:40.850Z,6.35
2022-09-06T06:26:42.551Z,6.70
2022-09-06T06:31:44.260Z,7.18
2022-09-06T06:36:46.030Z,7.20
2022-09-06T06:41:49.841Z,7.88
2022-09-06T06:47:20.799Z,7.95
2022-09-06T06:52:24.419Z,7.72
2022-09-06T06:57:26.789Z,7.80
2022-09-06T07:02:29.541Z,7.50
2022-09-06T07:07:34.344Z,8.15
2022-09-06T07:12:38.260Z,8.18
2022-09-06T07:17:40.979Z,7.10
2022-09-06T07:22:42.852Z,6.07
2022-09-06T07:32:47.604Z,6.30
2022-09-06T07:38:07.126Z,6.40
2022-09-06T07:48:10.693Z,6.45
2022-09-06T07:53:16.532Z,7.95
2022-09-06T07:58:23.722Z,6.70
2022-09-06T08:03:26.447Z,7.10
2022-09-06T08:13:55.679Z,6.97
2022-09-06T08:19:01.463Z,7.05
2022-09-06T08:24:06.891Z,6.70
2022-09-06T08:29:10.900Z,6.80
2022-09-06T08:34:14.194Z,7.07
2022-09-06T08:39:16.824Z,6.22
2022-09-06T08:50:07.539Z,5.70
2022-09-06T08:55:24.310Z,6.55
2022-09-06T09:00:26.164Z,6.15
2022-09-06T09:05:32.672Z,5.97
2022-09-06T09:10:50.425Z,6.45
2022-09-06T09:15:53.265Z,6.45
2022-09-06T09:20:55.392Z,6.38
2022-09-06T09:26:02.544Z,6.30
2022-09-06T09:31:05.273Z,6.15
2022-09-06T09:36:13.587Z,7.07
2022-09-06T09:41:30.300Z,6.22
2022-09-06T09:46:36.297Z,6.10
2022-09-06T09:51:42.929Z,7.68
2022-09-06T09:56:49.817Z,6.85
2022-09-06T10:02:01.136Z,7.20
2022-09-06T10:07:15.023Z,7.88
2022-09-06T10:12:19.164Z,9.20
2022-09-06T10:17:26.865Z,8.77
2022-09-06T10:22:35.516Z,8.23
2022-09-06T10:28:01.617Z,10.43
2022-09-06T10:33:35.191Z,9.75
2022-09-06T10:39:03.524Z,8.40
2022-09-06T10:44:33.820Z,8.77
2022-09-06T10:49:37.950Z,7.88
2022-09-06T10:54:42.122Z,8.13
2022-09-06T10:59:52.029Z,7.28
2022-09-06T11:10:29.283Z,5.53
2022-09-06T11:16:01.306Z,5.78
2022-09-06T11:21:40.600Z,6.88
2022-09-06T11:27:38.679Z,6.57
2022-09-06T11:32:48.686Z,5.97
2022-09-06T11:38:00.971Z,6.78
2022-09-06T11:43:03.233Z,8.18
2022-09-06T11:48:23.533Z,7.10
2022-09-06T11:53:25.345Z,7.82
2022-09-06T11:58:33.456Z,8.05
2022-09-06T12:04:09.865Z,7.97
2022-09-06T12:09:29.416Z,6.13
2022-09-06T12:14:34.417Z,5.82
2022-09-06T12:19:46.421Z,6.30
2022-09-06T12:24:48.406Z,5.75
2022-09-06T12:30:02.449Z,7.10
2022-09-06T12:40:36.871Z,5.97
2022-09-06T12:45:44.413Z,5.18
2022-09-06T12:50:46.192Z,5.07
2022-09-06T12:55:47.974Z,4.72
2022-09-06T13:00:53.179Z,4.72
2022-09-06T13:05:56.627Z,4.05
2022-09-06T13:11:00.483Z,5.00
2022-09-06T13:16:03.366Z,5.53
2022-09-06T13:21:18.926Z,3.92
2022-09-06T13:26:38.828Z,3.10
2022-09-06T13:31:45.538Z,3.67
2022-09-06T13:37:05.392Z,4.32
2022-09-06T13:42:23.416Z,3.40
2022-09-06T13:47:29.441Z,5.53
2022-09-06T13:52:31.208Z,2.63
2022-09-06T13:57:32.910Z,2.45
2022-09-06T14:02:34.852Z,2.42
2022-09-06T14:07:36.549Z,2.72
2022-09-06T14:12:38.261Z,2.40
2022-09-06T14:17:39.920Z,1.90
2022-09-06T14:22:43.718Z,1.30
2022-09-06T14:27:48.523Z,1.90
2022-09-06T14:32:50.346Z,1.63
2022-09-06T14:37:52.304Z,7.45
2022-09-06T14:42:54.046Z,1.77
2022-09-06T14:47:56.244Z,1.60
2022-09-06T14:52:58.378Z,1.52
2022-09-06T14:58:00.063Z,1.33
2022-09-06T15:03:01.726Z,1.80
2022-09-06T15:08:03.562Z,1.10
2022-09-06T15:13:06.298Z,1.73
2022-09-06T15:18:07.883Z,1.40
2022-09-06T15:23:26.302Z,1.35
2022-09-06T15:28:30.140Z,1.50
2022-09-06T15:33:33.562Z,1.23
2022-09-06T15:38:36.996Z,1.50
2022-09-06T15:43:42.158Z,1.70
2022-09-06T15:48:49.293Z,1.13
2022-09-06T15:53:50.968Z,1.13
2022-09-06T15:58:52.733Z,1.02
2022-09-06T16:04:06.152Z,0.90
2022-09-06T16:09:17.624Z,0.80
2022-09-06T16:14:19.478Z,1.42
2022-09-06T16:19:21.179Z,1.35
2022-09-06T16:24:23.340Z,1.05
2022-09-06T16:29:25.297Z,0.93
2022-09-06T16:34:27.490Z,0.90
2022-09-06T16:39:29.256Z,1.23
2022-09-06T16:44:31.149Z,1.30
2022-09-06T16:49:32.853Z,1.58
2022-09-06T16:54:34.519Z,1.10
2022-09-06T16:59:37.330Z,1.20
2022-09-06T17:04:39.093Z,0.98
2022-09-06T17:09:40.759Z,1.15
2022-09-06T17:14:42.927Z,1.33
2022-09-06T17:19:44.630Z,1.20
2022-09-06T17:24:46.266Z,1.85
2022-09-06T17:29:48.144Z,1.10
2022-09-06T17:34:50.234Z,1.30
2022-09-06T17:39:51.964Z,1.60
2022-09-06T17:44:53.697Z,1.63
2022-09-06T17:49:55.372Z,1.45
2022-09-06T17:54:57.042Z,2.45
2022-09-06T18:00:00.995Z,1.70
2022-09-06T18:05:02.768Z,2.00
2022-09-06T18:10:04.796Z,1.73
2022-09-06T18:15:07.148Z,1.90
2022-09-06T18:20:09.133Z,2.00
2022-09-06T18:25:11.064Z,1.58
2022-09-06T18:30:14.962Z,2.03
2022-09-06T18:35:17.263Z,1.88
2022-09-06T18:40:19.043Z,1.80
2022-09-06T18:45:22.759Z,2.20
2022-09-06T18:50:25.675Z,2.58
2022-09-06T18:55:27.280Z,3.17
2022-09-06T19:00:29.592Z,2.40
2022-09-06T19:05:36.549Z,3.08
2022-09-06T19:10:38.396Z,3.05
2022-09-06T19:15:43.246Z,2.80
2022-09-06T19:20:46.704Z,2.50
2022-09-06T19:25:56.807Z,2.10
2022-09-06T19:31:05.004Z,1.92
2022-09-06T19:36:11.813Z,2.47
2022-09-06T19:41:17.136Z,2.80
2022-09-06T19:46:19.828Z,1.85
2022-09-06T19:51:21.987Z,2.70
2022-09-06T19:56:26.735Z,2.40
2022-09-06T20:01:32.691Z,2.20
2022-09-06T20:06:36.486Z,2.10
2022-09-06T20:11:41.332Z,2.20
2022-09-06T20:16:45.494Z,3.22
2022-09-06T20:21:47.173Z,2.83
2022-09-06T20:26:51.129Z,2.53
2022-09-06T20:31:52.908Z,2.28
2022-09-06T20:36:54.599Z,3.53
2022-09-06T20:41:56.218Z,3.00
2022-09-06T20:46:58.085Z,2.90
2022-09-06T20:52:00.787Z,3.30
2022-09-06T20:57:03.852Z,3.15
2022-09-06T21:02:06.331Z,3.30
2022-09-06T21:07:09.243Z,3.25
2022-09-06T21:12:11.139Z,2.88
2022-09-06T21:17:12.763Z,3.22
2022-09-06T21:22:14.599Z,3.53
2022-09-06T21:27:16.732Z,3.15
2022-09-06T21:32:18.563Z,2.92
2022-09-06T21:37:20.375Z,2.63
2022-09-06T21:42:22.046Z,3.08
2022-09-06T21:47:23.711Z,2.90
2022-09-06T21:52:25.365Z,2.90
2022-09-06T21:57:28.096Z,3.72
2022-09-06T22:02:30.020Z,4.00
2022-09-06T22:07:32.112Z,3.08
2022-09-06T22:12:33.947Z,3.40
2022-09-06T22:17:35.727Z,3.33
2022-09-06T22:22:38.140Z,4.10
2022-09-06T22:27:40.692Z,4.13
2022-09-06T22:32:42.363Z,3.03
2022-09-06T22:37:44.112Z,2.95
2022-09-06T22:42:46.267Z,2.58
2022-09-06T22:47:51.016Z,2.95
2022-09-06T22:53:00.868Z,2.28
2022-09-06T22:58:03.879Z,1.95
2022-09-06T23:03:05.546Z,1.00
2022-09-06T23:08:08.362Z,1.60
2022-09-06T23:13:10.975Z,1.73
2022-09-06T23:18:13.988Z,2.33
2022-09-06T23:23:15.776Z,1.67
2022-09-06T23:28:17.496Z,1.50
2022-09-06T23:33:19.163Z,1.30
2022-09-06T23:38:20.855Z,1.70
2022-09-06T23:43:22.650Z,1.90
2022-09-06T23:48:24.823Z,2.20
2022-09-06T23:53:26.692Z,2.20
2022-09-06T23:58:28.537Z,2.25
